Time;durP1;ratioP1;P1;durP2;ratioP2;P2;SDS_P1;SDS_P2;PMS_P1;PMS_P2;Temp;Humidity;BMP_temperature;BMP_pressure;BME280_temperature;BME280_humidity;BME280_pressure;Samples;Min_cycle;Max_cycle;Signal;HPM_P1;HPM_P2
2023/09/06 00:01:56;;;;;;;25.77;10.43;;;;;;;18.69;100.00;101966.78;4959937;28;20030;-78
2023/09/06 00:04:24;;;;;;;25.17;10.27;;;;;;;18.59;100.00;101974.63;4995083;28;20428;-78
2023/09/06 00:07:09;;;;;;;24.60;11.18;;;;;;;18.60;100.00;101967.28;4961134;28;20126;-77
2023/09/06 00:09:36;;;;;;;32.50;12.90;;;;;;;18.67;100.00;101982.50;4993863;28;20030;-77
2023/09/06 00:12:02;;;;;;;25.35;10.85;;;;;;;18.69;100.00;101972.22;4976555;28;20038;-78
2023/09/06 00:14:29;;;;;;;30.73;12.15;;;;;;;18.65;100.00;101976.47;4994097;28;20129;-78
2023/09/06 00:16:54;;;;;;;28.23;12.20;;;;;;;18.68;100.00;101977.91;4975958;28;20038;-78
2023/09/06 00:19:20;;;;;;;32.45;12.82;;;;;;;18.63;100.00;101967.66;4976247;28;20389;-78
2023/09/06 00:21:45;;;;;;;20.10;9.68;;;;;;;18.63;100.00;101975.00;4983645;28;20034;-78
2023/09/06 00:24:12;;;;;;;30.13;11.77;;;;;;;18.57;100.00;101974.00;5003218;28;20026;-77
2023/09/06 00:26:38;;;;;;;28.83;12.07;;;;;;;18.38;100.00;101942.34;4975977;28;20393;-77
2023/09/06 00:29:06;;;;;;;35.28;12.30;;;;;;;18.53;100.00;101965.44;4993416;28;20030;-78
2023/09/06 00:31:31;;;;;;;28.70;12.23;;;;;;;18.64;100.00;101974.81;4993398;28;20428;-78
2023/09/06 00:33:57;;;;;;;28.33;12.52;;;;;;;18.64;100.00;101973.94;4943627;28;20042;-78
2023/09/06 00:36:22;;;;;;;28.02;11.60;;;;;;;18.53;100.00;101976.34;4993295;28;20165;-77
2023/09/06 00:38:47;;;;;;;30.27;11.98;;;;;;;18.51;100.00;101974.94;4958804;28;20077;-78
2023/09/06 00:41:13;;;;;;;29.80;11.90;;;;;;;18.40;100.00;101962.00;4958667;28;20057;-78
2023/09/06 00:43:38;;;;;;;27.33;11.63;;;;;;;18.54;100.00;101986.22;4992357;28;20105;-78
2023/09/06 00:46:07;;;;;;;28.35;11.82;;;;;;;18.49;100.00;101986.03;4959314;28;20034;-78
2023/09/06 00:48:34;;;;;;;28.25;12.23;;;;;;;18.50;100.00;101995.03;4958036;28;20045;-78
2023/09/06 00:51:01;;;;;;;37.42;12.60;;;;;;;18.53;100.00;101983.69;4992011;28;20055;-77
2023/09/06 00:53:27;;;;;;;28.63;12.32;;;;;;;18.53;100.00;101983.69;4991422;28;20397;-78
2023/09/06 00:55:53;;;;;;;33.47;12.40;;;;;;;18.46;100.00;101983.75;4973705;28;20039;-77
2023/09/06 00:58:19;;;;;;;25.40;11.10;;;;;;;18.41;100.00;101999.09;4992941;28;20093;-78
2023/09/06 01:00:47;;;;;;;21.50;11.43;;;;;;;18.31;100.00;101980.53;4975435;28;20125;-78
2023/09/06 01:03:14;;;;;;;30.48;11.52;;;;;;;18.37;100.00;101989.69;4975374;28;20429;-78
2023/09/06 01:05:56;;;;;;;29.85;11.77;;;;;;;18.04;100.00;101944.47;4959566;28;20097;-77
2023/09/06 01:08:28;;;;;;;28.27;11.27;;;;;;;18.30;100.00;102004.22;4993075;28;20539;-78
2023/09/06 01:11:21;;;;;;;26.23;11.30;;;;;;;18.27;100.00;101996.47;4993074;28;20038;-77
2023/09/06 01:14:01;;;;;;;34.28;12.50;;;;;;;18.14;100.00;101982.94;4975446;28;20053;-77
2023/09/06 01:16:42;;;;;;;33.38;12.13;;;;;;;18.32;100.00;101998.56;4975553;28;20023;-77
2023/09/06 01:19:28;;;;;;;34.67;12.88;;;;;;;18.37;100.00;101995.97;4975494;28;20034;-78
2023/09/06 01:22:33;;;;;;;34.72;12.23;;;;;;;18.33;100.00;102002.09;4993203;28;20113;-78
2023/09/06 01:24:58;;;;;;;30.00;11.88;;;;;;;18.28;100.00;101998.16;4992375;28;20034;-77
2023/09/06 01:27:24;;;;;;;25.00;11.15;;;;;;;18.24;100.00;102002.38;4975568;28;20452;-78
2023/09/06 01:29:50;;;;;;;32.63;12.20;;;;;;;18.18;100.00;102005.13;4975934;28;20037;-77
2023/09/06 01:32:17;;;;;;;32.42;11.32;;;;;;;18.15;100.00;102009.16;4993368;28;20396;-77
2023/09/06 01:34:42;;;;;;;21.63;11.35;;;;;;;18.13;100.00;102005.81;4975338;28;20169;-78
2023/09/06 01:37:08;;;;;;;24.67;10.10;;;;;;;18.09;100.00;101996.41;4976047;28;20113;-78
2023/09/06 01:39:33;;;;;;;29.10;11.77;;;;;;;18.06;100.00;102005.84;4961931;28;20408;-78
2023/09/06 01:41:58;;;;;;;33.17;12.07;;;;;;;18.11;100.00;102015.25;4977659;28;20392;-78
2023/09/06 01:44:24;;;;;;;35.85;12.27;;;;;;;18.20;100.00;102012.03;4977507;28;20031;-78
2023/09/06 01:46:49;;;;;;;33.90;11.85;;;;;;;18.19;100.00;102015.00;4977123;28;20038;-78
2023/09/06 01:49:15;;;;;;;32.60;11.38;;;;;;;17.99;100.00;101998.78;4945305;28;20046;-78
2023/09/06 01:51:40;;;;;;;31.80;13.55;;;;;;;17.98;100.00;102006.13;4977382;28;20513;-78
2023/09/06 01:54:10;;;;;;;28.17;12.50;;;;;;;18.11;100.00;102028.88;4945325;28;20062;-78
2023/09/06 01:56:35;;;;;;;32.03;12.60;;;;;;;18.12;100.00;102028.66;4978049;28;20428;-78
2023/09/06 01:59:00;;;;;;;37.83;12.48;;;;;;;18.03;100.00;102035.41;4977605;28;20033;-78
2023/09/06 02:01:26;;;;;;;26.90;10.75;;;;;;;17.97;100.00;102044.47;4961410;28;20034;-78
2023/09/06 02:03:51;;;;;;;28.02;12.07;;;;;;;17.93;100.00;102040.50;4977205;28;20030;-77
2023/09/06 02:06:17;;;;;;;24.13;12.38;;;;;;;17.83;100.00;102030.91;4961541;28;20484;-78
2023/09/06 02:08:42;;;;;;;31.67;11.77;;;;;;;17.80;100.00;102033.25;4961172;28;20038;-77
2023/09/06 02:11:08;;;;;;;32.60;12.43;;;;;;;17.77;100.00;102041.84;4977264;28;20034;-77
2023/09/06 02:13:33;;;;;;;22.05;10.50;;;;;;;17.66;100.00;102027.00;4977132;28;20497;-78
2023/09/06 02:16:01;;;;;;;32.80;12.48;;;;;;;17.69;100.00;102042.06;4994375;28;20042;-78
2023/09/06 02:18:26;;;;;;;29.35;13.15;;;;;;;17.57;100.00;102025.56;4961343;28;20069;-77
2023/09/06 02:20:55;;;;;;;33.60;14.35;;;;;;;17.61;100.00;102019.50;4960778;28;20128;-78
2023/09/06 02:23:21;;;;;;;37.10;16.70;;;;;;;17.87;100.00;102046.81;4977278;28;20050;-77
2023/09/06 02:25:47;;;;;;;35.25;15.77;;;;;;;17.89;100.00;102051.00;4960307;28;20115;-77
2023/09/06 02:28:14;;;;;;;38.65;16.33;;;;;;;17.82;100.00;102029.25;4994924;28;20034;-78
2023/09/06 02:30:41;;;;;;;28.02;15.55;;;;;;;17.86;100.00;102035.09;4994043;28;20022;-78
2023/09/06 02:33:12;;;;;;;36.22;17.08;;;;;;;17.88;100.00;102045.75;4960895;28;20066;-77
2023/09/06 02:35:40;;;;;;;43.60;19.55;;;;;;;17.95;100.00;102050.13;4976652;28;20026;-78
2023/09/06 02:38:25;;;;;;;44.55;20.05;;;;;;;17.99;100.00;102058.69;4977122;28;20400;-77
2023/09/06 02:40:52;;;;;;;43.78;19.77;;;;;;;18.05;100.00;102055.13;4979511;28;20026;-77
2023/09/06 02:43:17;;;;;;;62.60;23.02;;;;;;;18.10;100.00;102055.28;4963179;28;20038;-77
2023/09/06 02:45:49;;;;;;;54.83;22.80;;;;;;;18.11;100.00;102056.94;4976121;28;20026;-77
2023/09/06 02:48:16;;;;;;;51.17;21.00;;;;;;;18.11;100.00;102067.00;4976530;28;20026;-77
2023/09/06 02:50:44;;;;;;;40.70;18.42;;;;;;;18.06;100.00;102075.84;4957070;28;20062;-77
2023/09/06 02:53:19;;;;;;;26.25;14.27;;;;;;;17.90;100.00;102058.09;4973268;28;20031;-77
2023/09/06 02:55:48;;;;;;;40.72;18.83;;;;;;;17.91;100.00;102067.09;4973881;28;20037;-77
2023/09/06 02:58:18;;;;;;;31.55;17.48;;;;;;;17.94;100.00;102070.22;4973851;28;20568;-77
2023/09/06 03:00:47;;;;;;;42.42;17.20;;;;;;;17.82;100.00;102066.53;4957535;28;20122;-77
2023/09/06 03:03:15;;;;;;;30.55;13.63;;;;;;;17.52;100.00;102082.53;4974531;28;20494;-77
2023/09/06 03:05:41;;;;;;;48.30;17.63;;;;;;;17.22;100.00;102074.88;4973219;28;20050;-77
2023/09/06 03:08:08;;;;;;;28.30;14.00;;;;;;;17.20;100.00;102071.50;4973199;28;20058;-77
2023/09/06 03:10:34;;;;;;;25.27;13.90;;;;;;;17.30;100.00;102092.84;4972853;28;20029;-78
2023/09/06 03:13:00;;;;;;;23.10;12.45;;;;;;;17.31;100.00;102095.34;4972857;28;20023;-77
2023/09/06 03:15:28;;;;;;;27.88;13.27;;;;;;;17.36;100.00;102092.81;4972881;28;20110;-77
2023/09/06 03:18:00;;;;;;;31.45;15.75;;;;;;;17.42;100.00;102095.72;4973918;28;20053;-77
2023/09/06 03:20:42;;;;;;;26.63;14.20;;;;;;;17.35;100.00;102077.56;4957382;28;20026;-77
2023/09/06 03:23:19;;;;;;;49.28;19.58;;;;;;;17.52;100.00;102101.59;4974430;28;20061;-77
2023/09/06 03:25:51;;;;;;;35.10;16.13;;;;;;;17.57;100.00;102099.06;4972403;28;20032;-77
2023/09/06 03:28:20;;;;;;;28.58;14.90;;;;;;;17.62;100.00;102101.97;4973877;28;20054;-77
2023/09/06 03:30:47;;;;;;;29.73;14.63;;;;;;;17.63;100.00;102108.25;4974086;28;20027;-77
2023/09/06 03:33:12;;;;;;;29.75;15.43;;;;;;;17.60;100.00;102088.56;4972724;28;20090;-77
2023/09/06 03:35:38;;;;;;;24.85;13.75;;;;;;;17.79;100.00;102105.91;4972334;28;20030;-77
2023/09/06 03:38:25;;;;;;;29.45;13.80;;;;;;;17.87;100.00;102104.84;4972430;28;20545;-77
2023/09/06 03:40:49;;;;;;;29.55;14.05;;;;;;;17.93;100.00;102105.88;4972531;28;20125;-77
2023/09/06 03:43:15;;;;;;;34.40;14.23;;;;;;;17.88;100.00;102094.78;4973840;28;20492;-77
2023/09/06 03:45:55;;;;;;;23.75;12.63;;;;;;;17.99;100.00;102114.00;4973234;28;20109;-77
2023/09/06 03:48:23;;;;;;;34.85;14.90;;;;;;;18.05;100.00;102104.97;4974190;28;20117;-77
2023/09/06 03:50:57;;;;;;;33.53;15.35;;;;;;;18.10;100.00;102098.84;4985730;28;20346;-78
2023/09/06 03:53:26;;;;;;;33.78;14.20;;;;;;;18.18;100.00;102117.69;4995454;28;20169;-78
2023/09/06 03:55:52;;;;;;;29.55;12.48;;;;;;;18.18;100.00;102117.69;4945946;28;20038;-76
2023/09/06 03:58:18;;;;;;;29.83;13.30;;;;;;;18.30;100.00;102112.38;4976016;28;20031;-77
2023/09/06 04:00:44;;;;;;;29.20;14.10;;;;;;;18.40;100.00;102120.06;4974982;28;20120;-77
2023/09/06 04:03:11;;;;;;;34.83;14.05;;;;;;;18.52;100.00;102123.78;4977385;28;20061;-76
2023/09/06 04:05:37;;;;;;;32.97;13.63;;;;;;;18.59;100.00;102130.00;4994090;28;20030;-76
2023/09/06 04:08:07;;;;;;;31.10;12.23;;;;;;;18.72;100.00;102126.38;4993100;28;20104;-77
2023/09/06 04:10:40;;;;;;;34.05;14.45;;;;;;;18.65;100.00;102101.88;4992727;28;20081;-76
2023/09/06 04:13:07;;;;;;;27.38;14.10;;;;;;;18.76;100.00;102130.34;4976989;28;20046;-76
2023/09/06 04:15:36;;;;;;;30.10;15.70;;;;;;;18.60;100.00;102118.03;4978568;28;20030;-77
2023/09/06 04:18:03;;;;;;;29.83;15.13;;;;;;;18.73;100.00;102137.06;4977327;28;20030;-76
2023/09/06 04:20:31;;;;;;;32.20;16.30;;;;;;;18.75;100.00;102134.97;4978290;28;20030;-77
2023/09/06 04:22:57;;;;;;;29.25;9.75;;;;;;;18.92;100.00;102142.59;4997632;28;20033;-77
2023/09/06 04:25:26;;;;;;;28.70;11.27;;;;;;;19.10;100.00;102147.25;4995189;28;20026;-76
2023/09/06 04:27:54;;;;;;;23.90;10.13;;;;;;;19.23;100.00;102147.97;4994231;28;20025;-77
2023/09/06 04:30:24;;;;;;;34.60;14.13;;;;;;;19.19;100.00;102156.84;4960704;28;20031;-76
2023/09/06 04:32:51;;;;;;;25.95;14.43;;;;;;;19.17;100.00;102161.69;4962947;28;20057;-76
2023/09/06 04:35:17;;;;;;;31.15;14.30;;;;;;;19.14;100.00;102162.97;4977139;28;20113;-76
2023/09/06 04:37:43;;;;;;;40.47;17.00;;;;;;;19.09;100.00;102161.97;4948988;28;20034;-76
2023/09/06 04:40:13;;;;;;;28.50;15.13;;;;;;;18.98;100.00;102139.81;4980622;28;20027;-77
2023/09/06 04:42:42;;;;;;;35.00;15.68;;;;;;;19.17;100.00;102165.28;4981112;28;20022;-77
2023/09/06 04:45:09;;;;;;;36.72;16.13;;;;;;;19.17;100.00;102170.72;4965174;28;20041;-76
2023/09/06 04:47:36;;;;;;;37.63;16.92;;;;;;;18.97;100.00;102161.84;4972125;28;20066;-76
2023/09/06 04:50:02;;;;;;;37.33;17.38;;;;;;;19.15;100.00;102188.38;4954728;28;20071;-76
2023/09/06 04:52:27;;;;;;;33.70;18.15;;;;;;;19.14;100.00;102187.53;4974598;28;20037;-76
2023/09/06 04:54:53;;;;;;;35.75;19.83;;;;;;;19.20;100.00;102188.53;4964308;28;20043;-76
2023/09/06 04:57:18;;;;;;;43.28;21.30;;;;;;;19.15;100.00;102167.38;4967224;28;20477;-76
2023/09/06 04:59:44;;;;;;;46.50;20.45;;;;;;;19.24;100.00;102189.78;4957653;28;20104;-76
2023/09/06 05:02:09;;;;;;;42.70;21.77;;;;;;;19.18;100.00;102190.66;4973918;28;20061;-76
2023/09/06 05:04:36;;;;;;;40.17;22.08;;;;;;;19.09;100.00;102187.34;4973499;28;20030;-76
2023/09/06 05:07:04;;;;;;;46.25;22.85;;;;;;;19.19;100.00;102184.13;4974220;28;20065;-77
2023/09/06 05:09:32;;;;;;;41.95;22.48;;;;;;;19.15;100.00;102172.84;4991023;28;20117;-76
2023/09/06 05:11:57;;;;;;;50.85;23.75;;;;;;;19.30;100.00;102191.59;4990961;28;20035;-76
2023/09/06 05:14:23;;;;;;;41.67;23.20;;;;;;;19.33;100.00;102193.03;4960560;28;20046;-76
2023/09/06 05:16:48;;;;;;;42.60;23.48;;;;;;;19.34;100.00;102198.28;4959820;28;20042;-76
2023/09/06 05:19:14;;;;;;;48.33;24.30;;;;;;;19.40;100.00;102197.41;4984463;28;20040;-76
2023/09/06 05:21:39;;;;;;;46.75;23.58;;;;;;;19.46;100.00;102204.66;4966189;28;20410;-76
2023/09/06 05:24:05;;;;;;;51.05;23.65;;;;;;;19.51;100.00;102209.47;4960529;28;20054;-77
2023/09/06 05:26:33;;;;;;;53.85;25.63;;;;;;;19.57;100.00;102211.31;4957726;28;20125;-76
2023/09/06 05:28:59;;;;;;;47.42;22.85;;;;;;;19.46;100.00;102206.56;4958767;28;20033;-77
2023/09/06 05:31:24;;;;;;;46.58;23.52;;;;;;;19.62;100.00;102214.19;4991242;28;20026;-77
2023/09/06 05:33:50;;;;;;;49.15;22.55;;;;;;;19.51;100.00;102197.72;4977648;28;20041;-76
2023/09/06 05:36:15;;;;;;;57.10;22.90;;;;;;;19.58;100.00;102215.69;4977939;28;20042;-77
2023/09/06 05:38:40;;;;;;;50.60;23.52;;;;;;;19.64;100.00;102219.47;4972221;28;20034;-76
2023/09/06 05:41:06;;;;;;;42.33;20.83;;;;;;;19.63;100.00;102224.06;4977645;28;20038;-76
2023/09/06 05:43:31;;;;;;;36.42;20.30;;;;;;;19.50;100.00;102207.78;4992387;28;20034;-76
2023/09/06 05:45:57;;;;;;;42.50;20.27;;;;;;;19.48;100.00;102209.91;4974288;28;20038;-76
2023/09/06 05:48:22;;;;;;;46.05;20.25;;;;;;;19.44;100.00;102214.16;4955255;28;20045;-77
2023/09/06 05:50:47;;;;;;;42.88;20.17;;;;;;;19.51;100.00;102220.38;4968098;28;20062;-76
2023/09/06 05:53:13;;;;;;;40.65;18.52;;;;;;;19.52;100.00;102222.06;4970969;28;20023;-76
2023/09/06 05:55:38;;;;;;;36.30;20.00;;;;;;;19.71;100.00;102218.31;4954801;28;20494;-76
2023/09/06 05:58:04;;;;;;;36.78;18.40;;;;;;;19.54;100.00;102225.41;4971690;28;20023;-76
2023/09/06 06:00:30;;;;;;;35.50;18.15;;;;;;;19.57;100.00;102224.09;4953980;28;20156;-76
2023/09/06 06:02:57;;;;;;;37.28;18.25;;;;;;;19.38;100.00;102217.78;4987310;28;20058;-76
2023/09/06 06:05:24;;;;;;;30.83;17.58;;;;;;;19.59;100.00;102230.19;4972182;28;20507;-75
2023/09/06 06:07:49;;;;;;;30.30;17.10;;;;;;;19.53;100.00;102231.91;4975006;28;20034;-76
2023/09/06 06:10:15;;;;;;;30.58;16.23;;;;;;;19.42;100.00;102230.75;4974402;28;20428;-76
2023/09/06 06:12:41;;;;;;;23.80;14.35;;;;;;;19.41;100.00;102233.72;4986736;28;20034;-76
2023/09/06 06:15:13;;;;;;;23.17;12.35;;;;;;;19.23;100.00;102221.66;4988235;28;20034;-76
2023/09/06 06:17:40;;;;;;;22.92;12.52;;;;;;;19.27;100.00;102233.00;4988112;28;20489;-75
2023/09/06 06:20:17;;;;;;;18.48;11.95;;;;;;;19.35;100.00;102221.78;4972457;28;20027;-76
2023/09/06 06:22:43;;;;;;;16.10;10.68;;;;;;;19.44;100.00;102236.84;4977565;28;20053;-75
2023/09/06 06:25:12;;;;;;;14.25;9.35;;;;;;;19.30;100.00;102243.44;5015085;28;20465;-75
2023/09/06 06:27:39;;;;;;;13.75;9.55;;;;;;;19.37;100.00;102236.06;4983391;28;20026;-75
2023/09/06 06:30:08;;;;;;;16.80;9.75;;;;;;;19.46;100.00;102247.50;4994038;28;20022;-75
2023/09/06 06:32:34;;;;;;;18.23;10.15;;;;;;;19.32;100.00;102248.69;4985630;28;20025;-76
2023/09/06 06:35:05;;;;;;;13.13;10.18;;;;;;;19.39;100.00;102255.75;5010309;28;20492;-75
2023/09/06 06:37:30;;;;;;;16.02;10.70;;;;;;;19.59;100.00;102255.59;4990708;28;20037;-77
2023/09/06 06:39:58;;;;;;;14.75;9.77;;;;;;;19.48;100.00;102240.78;4979402;28;20488;-77
2023/09/06 06:42:24;;;;;;;12.38;9.20;;;;;;;19.65;100.00;102265.66;4990421;28;20033;-76
2023/09/06 06:44:51;;;;;;;12.98;8.45;;;;;;;19.62;100.00;102263.34;4967605;28;20065;-77
2023/09/06 06:47:16;;;;;;;14.27;8.10;;;;;;;19.54;100.00;102263.63;4976337;28;20134;-76
2023/09/06 06:49:41;;;;;;;11.25;7.10;;;;;;;19.59;100.00;102271.13;4974799;28;20042;-76
2023/09/06 06:52:07;;;;;;;9.30;6.63;;;;;;;19.45;100.00;102259.50;4950001;28;20039;-76
2023/09/06 06:54:32;;;;;;;9.45;6.35;;;;;;;19.64;100.00;102279.53;4974517;28;20043;-75
2023/09/06 06:56:57;;;;;;;8.57;6.00;;;;;;;19.68;100.00;102278.03;5002793;28;20037;-77
2023/09/06 06:59:23;;;;;;;10.18;6.10;;;;;;;19.79;100.00;102281.91;4942831;28;20060;-75
2023/09/06 07:01:48;;;;;;;7.55;5.85;;;;;;;19.69;100.00;102283.25;4997892;28;20485;-76
2023/09/06 07:04:14;;;;;;;9.07;5.72;;;;;;;19.93;100.00;102286.19;4983999;28;20050;-76
2023/09/06 07:06:39;;;;;;;8.00;5.43;;;;;;;19.80;100.00;102283.56;4978377;28;20034;-77
2023/09/06 07:09:05;;;;;;;9.20;5.53;;;;;;;19.50;100.00;102306.06;4997034;28;20443;-75
2023/09/06 07:11:33;;;;;;;6.65;5.50;;;;;;;19.64;100.00;102298.66;4961771;28;20093;-76
2023/09/06 07:13:59;;;;;;;7.32;5.45;;;;;;;19.76;100.00;102306.94;4950882;28;20041;-77
2023/09/06 07:16:25;;;;;;;14.20;5.72;;;;;;;19.73;100.00;102305.47;4979240;28;20030;-76
2023/09/06 07:18:51;;;;;;;6.82;5.57;;;;;;;19.35;100.00;102303.66;4967142;28;20493;-77
2023/09/06 07:21:16;;;;;;;7.38;5.78;;;;;;;19.24;100.00;102307.94;4990163;28;20519;-76
2023/09/06 07:23:42;;;;;;;7.05;5.20;;;;;;;19.52;100.00;102303.97;4944035;28;20244;-76
2023/09/06 07:26:08;;;;;;;5.93;5.10;;;;;;;19.25;100.00;102314.25;4958746;28;20085;-76
2023/09/06 07:28:54;;;;;;;5.03;4.53;;;;;;;19.32;100.00;102322.38;4967090;28;20400;-78
2023/09/06 07:31:20;;;;;;;5.60;5.00;;;;;;;19.60;100.00;102333.72;4949091;28;20050;-75
2023/09/06 07:33:46;;;;;;;5.32;4.32;;;;;;;19.67;100.00;102329.09;4958683;28;20486;-76
2023/09/06 07:36:13;;;;;;;4.85;4.25;;;;;;;19.59;100.00;102337.50;4953074;28;20065;-76
2023/09/06 07:38:38;;;;;;;4.70;4.10;;;;;;;19.68;100.00;102329.91;4984296;28;20053;-76
2023/09/06 07:41:07;;;;;;;6.60;4.20;;;;;;;19.58;100.00;102344.03;4952016;28;20018;-76
2023/09/06 07:43:35;;;;;;;4.32;3.80;;;;;;;19.50;100.00;102344.28;4954321;28;20073;-74
2023/09/06 07:46:02;;;;;;;7.35;4.30;;;;;;;19.52;100.00;102352.28;4985285;28;20049;-76
2023/09/06 07:48:29;;;;;;;4.82;4.32;;;;;;;19.76;100.00;102347.91;4965892;28;20482;-76
2023/09/06 07:50:56;;;;;;;5.13;4.63;;;;;;;19.36;100.00;102332.63;4977613;28;20058;-77
2023/09/06 07:53:23;;;;;;;4.45;4.05;;;;;;;19.42;100.00;102359.03;4982180;28;20088;-75
2023/09/06 07:55:49;;;;;;;6.45;4.53;;;;;;;19.28;100.00;102357.47;4964905;28;20038;-76
2023/09/06 07:58:15;;;;;;;5.38;4.15;;;;;;;19.30;100.00;102349.88;4967649;28;20088;-76
2023/09/06 08:00:42;;;;;;;4.40;3.90;;;;;;;19.40;100.00;102354.84;4975646;28;20421;-74
2023/09/06 08:03:07;;;;;;;4.40;3.97;;;;;;;19.55;100.00;102347.19;4959329;28;20031;-74
2023/09/06 08:05:35;;;;;;;5.00;4.50;;;;;;;19.39;100.00;102348.56;4976546;28;20486;-76
2023/09/06 08:08:00;;;;;;;5.30;4.75;;;;;;;19.54;100.00;102352.91;4985512;28;20030;-74
2023/09/06 08:10:27;;;;;;;4.20;3.80;;;;;;;19.70;100.00;102366.00;4956447;28;20037;-75
2023/09/06 08:12:52;;;;;;;4.38;3.45;;;;;;;19.55;100.00;102370.94;4942199;28;20315;-76
2023/09/06 08:15:18;;;;;;;4.60;3.67;;;;;;;19.33;100.00;102375.91;4963290;28;20085;-75
2023/09/06 08:17:47;;;;;;;3.60;3.30;;;;;;;19.33;100.00;102367.72;4941505;28;20058;-76
2023/09/06 08:20:14;;;;;;;3.95;2.70;;;;;;;19.45;100.00;102369.53;4973231;28;20034;-74
2023/09/06 08:22:41;;;;;;;4.10;2.90;;;;;;;19.66;100.00;102370.25;4958472;28;20041;-75
2023/09/06 08:25:06;;;;;;;5.85;3.00;;;;;;;19.44;100.00;102384.25;4970913;28;20472;-76
2023/09/06 08:27:31;;;;;;;4.03;3.00;;;;;;;19.78;100.00;102375.84;4956059;28;20097;-76
2023/09/06 08:29:58;;;;;;;7.30;2.80;;;;;;;19.56;100.00;102378.91;4960483;28;20061;-76
2023/09/06 08:32:23;;;;;;;3.72;3.13;;;;;;;19.49;100.00;102364.47;4956051;28;20117;-74
2023/09/06 08:34:49;;;;;;;5.30;3.08;;;;;;;19.37;100.00;102367.06;4968649;28;20128;-76
2023/09/06 08:37:14;;;;;;;3.40;2.80;;;;;;;19.47;100.00;102380.25;4961769;28;20094;-76
2023/09/06 08:39:40;;;;;;;3.80;2.80;;;;;;;19.75;100.00;102396.25;4983050;28;20629;-76
2023/09/06 08:42:06;;;;;;;3.92;2.78;;;;;;;20.01;100.00;102384.25;4988298;28;20038;-75
2023/09/06 08:44:32;;;;;;;3.63;2.60;;;;;;;20.06;100.00;102386.31;4984729;28;20456;-75
2023/09/06 08:47:02;;;;;;;4.90;3.05;;;;;;;20.21;100.00;102394.19;4987027;28;20030;-75
2023/09/06 08:49:27;;;;;;;4.15;2.92;;;;;;;20.41;100.00;102401.13;4996628;28;20030;-75
2023/09/06 08:51:58;;;;;;;3.53;2.72;;;;;;;20.54;100.00;102381.03;4986509;28;20501;-75
2023/09/06 08:54:25;;;;;;;3.80;2.50;;;;;;;20.84;100.00;102396.69;4984389;28;20027;-75
2023/09/06 08:56:51;;;;;;;2.90;2.67;;;;;;;20.71;100.00;102356.63;4984572;28;20169;-75
2023/09/06 08:59:21;;;;;;;4.32;2.80;;;;;;;20.98;100.00;102397.34;4993748;28;20148;-76
2023/09/06 09:01:47;;;;;;;3.00;2.50;;;;;;;21.18;100.00;102411.59;4992006;28;20034;-75
2023/09/06 09:04:12;;;;;;;2.97;2.67;;;;;;;21.26;100.00;102407.75;4981355;28;20027;-76
2023/09/06 09:06:44;;;;;;;3.90;2.60;;;;;;;21.06;100.00;102373.25;4987553;28;20405;-76
2023/09/06 09:09:18;;;;;;;4.05;2.78;;;;;;;20.52;100.00;102401.47;4974089;28;20061;-76
2023/09/06 09:11:45;;;;;;;3.45;2.60;;;;;;;20.46;100.00;102405.91;4989854;28;21280;-76
2023/09/06 09:14:21;;;;;;;5.22;2.50;;;;;;;20.47;100.00;102388.44;4977313;28;20038;-75
2023/09/06 09:16:54;;;;;;;4.32;2.58;;;;;;;20.82;100.00;102413.31;4987184;28;20057;-76
2023/09/06 09:19:21;;;;;;;4.45;2.42;;;;;;;21.11;100.00;102410.88;4988026;28;20101;-76
2023/09/06 09:21:47;;;;;;;3.00;2.53;;;;;;;21.24;100.00;102416.16;4986188;28;20256;-76
2023/09/06 09:24:12;;;;;;;4.60;2.30;;;;;;;20.81;100.00;102397.13;4989061;28;20061;-75
2023/09/06 09:26:41;;;;;;;4.82;2.13;;;;;;;20.70;100.00;102406.94;4981538;28;20038;-75
2023/09/06 09:29:12;;;;;;;3.05;2.40;;;;;;;20.62;100.00;102415.44;4985906;28;20129;-74
2023/09/06 09:31:38;;;;;;;2.20;2.00;;;;;;;21.01;100.00;102425.09;4986046;28;20037;-74
2023/09/06 09:34:04;;;;;;;4.20;2.65;;;;;;;20.81;100.00;102424.50;4990092;28;20036;-74
2023/09/06 09:36:34;;;;;;;3.35;2.10;;;;;;;20.54;100.00;102411.13;4997283;28;20134;-75
2023/09/06 09:39:05;;;;;;;5.18;2.40;;;;;;;20.57;100.00;102393.44;4986277;28;20077;-75
2023/09/06 09:41:31;;;;;;;5.10;2.30;;;;;;;20.30;100.00;102417.44;4989064;28;20026;-74
2023/09/06 09:44:19;;;;;;;2.42;2.13;;;;;;;20.27;100.00;102423.34;4980987;28;20065;-74
2023/09/06 09:46:45;;;;;;;5.30;2.50;;;;;;;20.46;100.00;102414.09;4990903;28;20053;-75
2023/09/06 09:49:12;;;;;;;4.57;2.50;;;;;;;20.84;100.00;102435.00;4981549;28;20481;-75
2023/09/06 09:51:39;;;;;;;5.05;2.15;;;;;;;21.29;98.62;102431.88;4985579;28;20053;-75
2023/09/06 09:54:06;;;;;;;2.65;2.20;;;;;;;21.65;97.63;102427.41;4989683;28;20042;-75
2023/09/06 09:56:37;;;;;;;4.32;2.25;;;;;;;21.88;97.13;102432.94;4987570;28;20382;-74
2023/09/06 09:59:04;;;;;;;2.65;2.40;;;;;;;21.32;97.47;102439.63;4986166;28;21068;-73
2023/09/06 10:01:33;;;;;;;4.53;2.67;;;;;;;20.93;99.12;102443.75;4985594;28;20022;-74
2023/09/06 10:04:05;;;;;;;3.20;2.45;;;;;;;20.90;97.86;102442.28;4994763;28;20027;-75
2023/09/06 10:06:32;;;;;;;3.95;2.30;;;;;;;21.11;98.20;102441.81;4992370;28;20716;-73
2023/09/06 10:09:00;;;;;;;2.83;2.20;;;;;;;20.96;98.64;102438.66;4965498;28;20029;-73
2023/09/06 10:11:26;;;;;;;3.67;2.45;;;;;;;21.08;98.35;102450.47;4992806;28;20030;-74
2023/09/06 10:13:52;;;;;;;3.08;2.40;;;;;;;20.91;98.95;102435.75;4986755;28;20437;-74
2023/09/06 10:16:20;;;;;;;3.28;2.25;;;;;;;21.44;97.02;102448.78;4980828;28;20025;-74
2023/09/06 10:18:46;;;;;;;2.97;2.13;;;;;;;21.75;95.51;102433.16;4980649;28;20038;-74
2023/09/06 10:21:12;;;;;;;5.78;2.42;;;;;;;22.02;94.82;102442.66;4987337;28;20030;-74
2023/09/06 10:23:42;;;;;;;3.47;2.33;;;;;;;22.32;93.62;102433.53;4972042;28;20034;-74
2023/09/06 10:26:07;;;;;;;3.28;2.40;;;;;;;22.19;92.36;102447.47;4988413;28;20087;-74
2023/09/06 10:28:33;;;;;;;3.63;2.38;;;;;;;21.93;92.17;102424.88;4996492;28;20405;-74
2023/09/06 10:31:09;;;;;;;2.72;2.30;;;;;;;21.96;92.43;102438.09;4979131;28;20439;-74
2023/09/06 10:33:37;;;;;;;4.22;2.65;;;;;;;21.83;93.39;102442.97;4988577;28;20030;-74
2023/09/06 10:36:08;;;;;;;3.67;2.90;;;;;;;21.78;93.87;102440.91;4989571;28;20224;-74
2023/09/06 10:38:57;;;;;;;5.05;3.00;;;;;;;21.97;90.58;102428.81;4984984;28;20405;-74
2023/09/06 10:41:24;;;;;;;3.75;2.60;;;;;;;21.91;92.30;102435.22;4986212;28;20033;-73
2023/09/06 10:43:58;;;;;;;4.68;2.72;;;;;;;21.75;92.68;102438.63;4990647;28;20030;-74
2023/09/06 10:46:26;;;;;;;2.67;2.47;;;;;;;21.71;93.49;102442.91;4992557;28;20033;-75
2023/09/06 10:49:25;;;;;;;3.08;2.53;;;;;;;21.32;92.94;102451.44;4977012;28;20034;-74
2023/09/06 10:52:04;;;;;;;4.93;3.00;;;;;;;21.62;94.90;102452.53;4992423;28;20075;-74
2023/09/06 10:54:38;;;;;;;4.50;2.90;;;;;;;22.22;92.62;102441.50;4992833;28;20034;-74
2023/09/06 10:57:08;;;;;;;2.53;2.28;;;;;;;22.53;91.65;102448.53;4994017;28;20022;-74
2023/09/06 10:59:56;;;;;;;4.97;2.95;;;;;;;22.22;90.20;102453.31;4992563;28;20026;-75
2023/09/06 11:02:21;;;;;;;4.45;2.30;;;;;;;22.24;91.14;102458.53;4992920;28;20080;-75
2023/09/06 11:04:47;;;;;;;4.00;2.70;;;;;;;22.21;90.69;102456.28;4992771;28;20107;-75
2023/09/06 11:07:13;;;;;;;3.28;2.60;;;;;;;22.08;91.58;102450.97;4993025;28;20022;-74
2023/09/06 11:09:43;;;;;;;5.38;2.50;;;;;;;22.49;90.46;102461.91;4991961;28;20062;-75
2023/09/06 11:12:10;;;;;;;3.78;2.28;;;;;;;22.79;89.73;102463.66;4993817;28;20034;-75
2023/09/06 11:14:35;;;;;;;3.20;2.65;;;;;;;22.87;89.35;102463.28;4992091;28;20082;-75